Time;durP1;ratioP1;P1;durP2;ratioP2;P2;SDS_P1;SDS_P2;PMS_P1;PMS_P2;Temp;Humidity;BMP_temperature;BMP_pressure;BME280_temperature;BME280_humidity;BME280_pressure;Samples;Min_cycle;Max_cycle;Signal;HPM_P1;HPM_P2
2022/06/15 00:00:23;;;;;;;9.55;4.50;;;14.20;99.90;;;;;;4964722;28;20024;-74
2022/06/15 00:02:49;;;;;;;10.95;4.57;;;14.20;99.90;;;;;;4940974;28;20024;-74
2022/06/15 00:05:15;;;;;;;7.45;4.60;;;14.20;99.90;;;;;;4953024;29;20038;-73
2022/06/15 00:07:40;;;;;;;11.02;4.47;;;14.20;99.90;;;;;;4956091;28;20035;-73
2022/06/15 00:10:07;;;;;;;10.32;3.95;;;14.20;99.90;;;;;;4956997;28;20457;-74
2022/06/15 00:12:35;;;;;;;11.93;4.13;;;14.20;99.90;;;;;;4956255;28;20067;-74
2022/06/15 00:15:01;;;;;;;7.63;4.75;;;14.20;99.90;;;;;;4956211;28;20115;-74
2022/06/15 00:17:27;;;;;;;9.90;4.28;;;14.20;99.90;;;;;;4955810;28;20489;-73
2022/06/15 00:19:52;;;;;;;8.30;4.13;;;14.10;99.90;;;;;;4959399;28;20372;-74
2022/06/15 00:22:18;;;;;;;11.18;4.20;;;14.20;99.90;;;;;;4962298;28;20429;-72
2022/06/15 00:24:43;;;;;;;10.57;3.70;;;14.10;99.90;;;;;;4962814;28;20035;-74
2022/06/15 00:27:09;;;;;;;9.32;4.25;;;14.10;99.90;;;;;;4969165;28;20455;-74
2022/06/15 00:29:37;;;;;;;9.63;4.85;;;14.00;99.90;;;;;;4969693;28;20023;-75
2022/06/15 00:32:04;;;;;;;8.13;4.43;;;14.00;99.90;;;;;;4970305;28;20026;-75
2022/06/15 00:34:30;;;;;;;7.85;4.43;;;13.90;99.90;;;;;;4967456;28;20033;-75
2022/06/15 00:36:55;;;;;;;7.93;4.78;;;13.90;99.90;;;;;;4962196;28;20035;-74
2022/06/15 00:39:21;;;;;;;6.90;3.97;;;13.90;99.90;;;;;;4958906;28;20019;-74
2022/06/15 00:41:47;;;;;;;9.23;4.40;;;13.90;99.90;;;;;;4958184;28;20030;-75
2022/06/15 00:44:22;;;;;;;10.90;4.47;;;13.80;99.90;;;;;;4961665;28;20106;-75
2022/06/15 00:46:55;;;;;;;10.88;4.55;;;13.80;99.90;;;;;;4960122;28;20030;-75
2022/06/15 00:50:05;;;;;;;6.18;4.05;;;13.80;99.90;;;;;;4960032;28;20069;-73
2022/06/15 00:53:07;;;;;;;9.75;4.68;;;13.90;99.90;;;;;;4957253;29;20032;-74
2022/06/15 00:55:35;;;;;;;8.95;4.90;;;13.80;99.90;;;;;;4957796;28;20027;-74
2022/06/15 00:58:05;;;;;;;9.57;4.45;;;13.80;99.90;;;;;;4957831;28;20055;-74
2022/06/15 01:00:31;;;;;;;11.60;5.27;;;13.80;99.90;;;;;;4959079;28;20019;-75
2022/06/15 01:02:56;;;;;;;10.80;5.00;;;13.70;99.90;;;;;;4959555;28;20259;-74
2022/06/15 01:05:37;;;;;;;7.78;4.68;;;13.70;99.90;;;;;;4959239;28;20027;-74
2022/06/15 01:08:03;;;;;;;12.23;4.65;;;13.70;99.90;;;;;;4959031;28;20034;-74
2022/06/15 01:11:05;;;;;;;10.63;4.50;;;13.60;99.90;;;;;;4959094;28;20027;-74
2022/06/15 01:13:48;;;;;;;7.43;4.30;;;13.60;99.90;;;;;;4959229;28;20039;-74
2022/06/15 01:16:38;;;;;;;10.68;4.95;;;13.60;99.90;;;;;;4959727;28;20539;-74
2022/06/15 01:19:04;;;;;;;8.73;4.90;;;13.60;99.90;;;;;;4959406;28;20058;-73
2022/06/15 01:21:56;;;;;;;8.25;4.65;;;13.60;99.90;;;;;;4959531;28;20058;-74
2022/06/15 01:24:24;;;;;;;9.73;5.03;;;13.60;99.90;;;;;;4957495;28;20078;-74
2022/06/15 01:27:14;;;;;;;6.40;4.43;;;13.60;99.90;;;;;;4959495;28;20404;-74
2022/06/15 01:29:59;;;;;;;9.65;5.07;;;13.50;99.90;;;;;;4961740;28;20027;-74
2022/06/15 01:32:49;;;;;;;7.57;4.90;;;13.50;99.90;;;;;;4958155;28;20059;-74
2022/06/15 01:35:29;;;;;;;10.27;4.70;;;13.50;99.90;;;;;;4959299;28;20031;-74
2022/06/15 01:38:21;;;;;;;11.63;4.60;;;13.50;99.90;;;;;;4959114;28;20023;-74
2022/06/15 01:40:54;;;;;;;9.93;4.45;;;13.50;99.90;;;;;;4957304;28;20020;-74
2022/06/15 01:43:24;;;;;;;8.18;4.95;;;13.50;99.90;;;;;;4958379;28;20034;-74
2022/06/15 01:45:50;;;;;;;12.68;5.28;;;13.50;99.90;;;;;;4958633;28;20023;-74
2022/06/15 01:48:17;;;;;;;6.82;4.47;;;13.40;99.90;;;;;;4957405;28;20103;-74
2022/06/15 01:50:47;;;;;;;5.85;4.35;;;13.40;99.90;;;;;;4958528;29;20031;-74
2022/06/15 01:53:24;;;;;;;10.23;4.80;;;13.40;99.90;;;;;;4958596;28;20026;-74
2022/06/15 01:56:04;;;;;;;12.10;5.00;;;13.50;99.90;;;;;;4958454;28;20055;-74
2022/06/15 01:58:33;;;;;;;8.50;5.00;;;13.50;99.90;;;;;;4960751;28;20024;-74
2022/06/15 02:01:16;;;;;;;8.25;4.60;;;13.40;99.90;;;;;;4957819;28;20109;-75
2022/06/15 02:03:50;;;;;;;14.10;5.40;;;13.40;99.90;;;;;;4958486;28;20027;-74
2022/06/15 02:06:22;;;;;;;8.63;5.38;;;13.30;99.90;;;;;;4959661;28;20508;-74
2022/06/15 02:08:52;;;;;;;12.13;5.25;;;13.30;99.90;;;;;;4956821;28;20126;-74
2022/06/15 02:11:32;;;;;;;12.73;5.30;;;13.30;99.90;;;;;;4958807;28;20038;-74
2022/06/15 02:14:20;;;;;;;8.05;5.15;;;13.20;99.90;;;;;;4957072;28;20473;-74
2022/06/15 02:16:52;;;;;;;8.48;5.07;;;13.20;99.90;;;;;;4958308;28;20027;-74
2022/06/15 02:19:23;;;;;;;10.48;5.20;;;13.10;99.90;;;;;;4957744;28;20027;-74
2022/06/15 02:21:53;;;;;;;11.65;5.07;;;13.10;99.90;;;;;;4958045;28;20020;-74
2022/06/15 02:24:22;;;;;;;9.23;5.13;;;13.00;99.90;;;;;;4958377;28;20022;-73
2022/06/15 02:26:49;;;;;;;12.90;5.57;;;13.00;99.90;;;;;;4958515;28;20078;-73
2022/06/15 02:29:18;;;;;;;8.52;5.38;;;13.00;99.90;;;;;;4957556;28;20031;-74
2022/06/15 02:31:44;;;;;;;11.10;5.72;;;13.00;99.90;;;;;;4957371;28;20035;-74
2022/06/15 02:34:11;;;;;;;11.80;6.07;;;12.90;99.90;;;;;;4956833;28;20031;-73
2022/06/15 02:36:37;;;;;;;12.23;5.60;;;12.90;99.90;;;;;;4958000;29;20023;-73
2022/06/15 02:39:06;;;;;;;15.10;5.85;;;12.80;99.90;;;;;;4958211;28;20058;-74
2022/06/15 02:41:32;;;;;;;8.18;5.47;;;12.80;99.90;;;;;;4957931;28;20031;-74
2022/06/15 02:44:00;;;;;;;11.57;6.20;;;12.80;99.90;;;;;;4957627;28;20042;-74
2022/06/15 02:46:29;;;;;;;11.18;6.70;;;12.80;99.90;;;;;;4957942;28;20413;-74
2022/06/15 02:48:55;;;;;;;11.35;6.18;;;12.80;99.90;;;;;;4956723;28;20023;-74
2022/06/15 02:51:31;;;;;;;10.73;5.85;;;12.70;99.90;;;;;;4959962;28;20023;-74
2022/06/15 02:54:03;;;;;;;12.60;6.30;;;12.70;99.90;;;;;;4958670;28;20030;-74
2022/06/15 02:56:31;;;;;;;7.05;5.40;;;12.70;99.90;;;;;;4957216;28;20089;-74
2022/06/15 02:58:57;;;;;;;11.30;6.47;;;12.70;99.90;;;;;;4958965;28;20027;-74
2022/06/15 03:01:25;;;;;;;12.07;7.22;;;12.70;99.90;;;;;;4957005;28;20102;-74
2022/06/15 03:03:50;;;;;;;11.00;6.30;;;12.70;99.90;;;;;;4957816;28;20019;-74
2022/06/15 03:06:19;;;;;;;13.18;7.38;;;12.70;99.90;;;;;;4956789;28;20388;-74
2022/06/15 03:08:45;;;;;;;12.32;6.82;;;12.70;99.90;;;;;;4958089;28;20074;-74
2022/06/15 03:11:11;;;;;;;12.05;6.85;;;12.70;99.90;;;;;;4958123;28;20027;-73
2022/06/15 03:13:37;;;;;;;10.75;6.85;;;12.60;99.90;;;;;;4955915;28;20134;-74
2022/06/15 03:16:04;;;;;;;12.73;6.53;;;12.70;99.90;;;;;;4956455;28;20433;-73
2022/06/15 03:18:31;;;;;;;11.82;6.88;;;12.70;99.90;;;;;;4957033;28;20027;-73
2022/06/15 03:21:00;;;;;;;15.27;6.07;;;12.70;99.90;;;;;;4958436;28;20032;-73
2022/06/15 03:23:27;;;;;;;12.20;6.70;;;12.60;99.90;;;;;;4959232;28;20023;-74
2022/06/15 03:25:57;;;;;;;14.65;6.10;;;12.60;99.90;;;;;;4959455;28;20094;-74
2022/06/15 03:28:24;;;;;;;11.15;6.72;;;12.60;99.90;;;;;;4959300;28;20520;-74
2022/06/15 03:30:51;;;;;;;11.80;6.35;;;12.60;99.90;;;;;;4960636;28;20027;-73
2022/06/15 03:35:44;;;;;;;11.90;7.15;;;12.50;99.90;;;;;;4975102;28;20039;-74
2022/06/15 03:38:11;;;;;;;10.52;6.80;;;12.60;99.90;;;;;;4977145;28;20067;-75
2022/06/15 03:40:39;;;;;;;11.25;6.22;;;12.50;99.90;;;;;;4985530;28;20015;-74
2022/06/15 03:43:05;;;;;;;11.98;6.57;;;12.50;99.90;;;;;;4996822;28;20022;-74
2022/06/15 03:45:31;;;;;;;10.48;7.15;;;12.50;99.90;;;;;;4996383;28;20023;-75
2022/06/15 03:47:57;;;;;;;14.20;6.90;;;12.50;99.90;;;;;;4996763;28;20067;-75
2022/06/15 03:50:24;;;;;;;17.48;7.03;;;12.50;99.90;;;;;;4985476;28;20107;-74
2022/06/15 03:52:50;;;;;;;15.77;7.47;;;12.50;99.90;;;;;;4975204;28;20034;-74
2022/06/15 03:55:17;;;;;;;11.43;7.00;;;12.60;99.90;;;;;;4974923;28;20445;-74
2022/06/15 03:57:43;;;;;;;10.50;6.50;;;12.50;99.90;;;;;;4973733;28;20054;-74
2022/06/15 04:00:13;;;;;;;9.77;6.43;;;12.50;99.90;;;;;;4975586;28;20093;-74
2022/06/15 04:02:38;;;;;;;12.77;7.00;;;12.60;99.90;;;;;;4977365;28;20183;-74
2022/06/15 04:05:04;;;;;;;12.23;6.22;;;12.60;99.90;;;;;;4978642;28;20022;-74
2022/06/15 04:10:14;;;;;;;13.45;6.63;;;12.60;99.90;;;;;;4978795;28;20444;-74
2022/06/15 04:12:43;;;;;;;12.00;6.45;;;12.60;99.90;;;;;;4977691;28;20023;-74
2022/06/15 04:15:09;;;;;;;10.40;6.40;;;12.60;99.90;;;;;;4978023;28;20449;-75
2022/06/15 04:17:35;;;;;;;12.70;6.22;;;12.70;99.90;;;;;;4976822;28;20098;-75
2022/06/15 04:22:45;;;;;;;15.48;6.72;;;12.70;99.90;;;;;;4978787;28;20054;-74
2022/06/15 04:25:10;;;;;;;10.32;5.68;;;12.80;99.90;;;;;;4978254;28;20022;-74
2022/06/15 04:27:37;;;;;;;12.25;6.40;;;12.80;99.90;;;;;;4978166;28;20026;-74
2022/06/15 04:30:03;;;;;;;10.93;7.03;;;12.80;99.90;;;;;;4978348;28;20030;-76
2022/06/15 04:32:28;;;;;;;12.55;6.72;;;12.90;99.90;;;;;;4977703;28;20061;-77
2022/06/15 04:34:54;;;;;;;17.67;7.15;;;13.00;99.90;;;;;;4977556;28;20039;-76
2022/06/15 04:37:20;;;;;;;11.82;6.25;;;13.00;99.90;;;;;;4978560;28;20487;-76
2022/06/15 04:39:48;;;;;;;11.18;6.50;;;13.20;99.90;;;;;;4977968;28;20022;-76
2022/06/15 04:42:17;;;;;;;11.05;5.60;;;13.20;99.90;;;;;;4976365;28;20077;-77
2022/06/15 04:44:42;;;;;;;8.90;5.78;;;13.30;99.90;;;;;;4977407;28;20023;-76
2022/06/15 04:47:10;;;;;;;10.82;6.40;;;13.40;99.90;;;;;;4978218;28;20175;-76
2022/06/15 04:49:35;;;;;;;11.48;5.75;;;13.50;99.90;;;;;;4976124;28;20030;-76
2022/06/15 04:52:01;;;;;;;11.63;5.40;;;13.60;99.90;;;;;;4975880;28;20027;-76
2022/06/15 04:54:27;;;;;;;10.10;5.47;;;13.70;99.90;;;;;;4976356;28;20137;-76
2022/06/15 04:56:53;;;;;;;12.90;5.20;;;13.70;99.90;;;;;;4976796;28;20147;-76
2022/06/15 04:59:22;;;;;;;11.43;5.60;;;13.80;99.90;;;;;;4977452;28;20026;-76
2022/06/15 05:01:48;;;;;;;9.75;4.82;;;13.90;99.90;;;;;;4978449;28;20023;-76
2022/06/15 05:04:14;;;;;;;11.77;5.63;;;14.00;99.90;;;;;;4976598;28;20097;-76
2022/06/15 05:06:41;;;;;;;12.18;5.38;;;14.00;99.90;;;;;;4962595;28;20103;-76
2022/06/15 05:09:10;;;;;;;9.98;5.47;;;14.10;99.90;;;;;;4957132;28;20082;-76
2022/06/15 05:11:36;;;;;;;12.43;4.75;;;14.20;99.90;;;;;;4958301;28;20039;-76
2022/06/15 05:14:05;;;;;;;10.23;4.68;;;14.20;99.90;;;;;;4958627;28;20027;-76
2022/06/15 05:16:31;;;;;;;7.57;4.72;;;14.30;99.90;;;;;;4964232;28;20035;-76
2022/06/15 05:18:56;;;;;;;8.88;4.60;;;14.50;99.90;;;;;;4958351;28;20032;-76
2022/06/15 05:21:22;;;;;;;8.95;4.40;;;14.60;99.90;;;;;;4956570;28;20081;-76
2022/06/15 05:23:48;;;;;;;6.47;3.83;;;14.70;99.90;;;;;;4956927;29;20024;-77
2022/06/15 05:26:14;;;;;;;7.45;4.80;;;14.80;99.90;;;;;;4958227;29;20106;-76
2022/06/15 05:28:44;;;;;;;7.00;4.30;;;15.00;99.90;;;;;;4957450;29;20031;-76
2022/06/15 05:31:16;;;;;;;7.53;3.80;;;15.10;99.90;;;;;;4958288;28;20035;-76
2022/06/15 05:33:42;;;;;;;7.28;4.38;;;15.20;99.90;;;;;;4958597;28;20039;-76
2022/06/15 05:36:10;;;;;;;6.35;4.38;;;15.30;99.90;;;;;;4957966;28;20035;-76
2022/06/15 05:38:37;;;;;;;6.75;3.60;;;15.30;99.90;;;;;;4958701;28;20027;-76
2022/06/15 05:41:03;;;;;;;8.35;4.10;;;15.40;99.90;;;;;;4958078;28;20090;-76
2022/06/15 05:43:31;;;;;;;7.85;4.15;;;15.50;99.90;;;;;;4957095;28;20028;-76
2022/06/15 05:45:57;;;;;;;7.05;3.78;;;15.50;99.90;;;;;;4957196;28;20034;-76
2022/06/15 05:48:22;;;;;;;6.78;4.03;;;15.60;99.90;;;;;;4958149;28;20027;-77
2022/06/15 05:50:48;;;;;;;7.35;3.88;;;15.70;99.90;;;;;;4958509;28;20038;-76
2022/06/15 05:53:14;;;;;;;10.73;3.80;;;15.70;99.90;;;;;;4958557;29;20093;-76
2022/06/15 05:55:39;;;;;;;9.98;3.85;;;15.80;99.90;;;;;;4958694;28;20027;-77
2022/06/15 05:58:06;;;;;;;9.30;3.47;;;16.00;99.90;;;;;;4958848;29;20122;-76
2022/06/15 06:00:32;;;;;;;7.20;2.90;;;16.10;99.90;;;;;;4959025;28;20032;-76
2022/06/15 06:02:58;;;;;;;6.28;3.10;;;16.20;99.90;;;;;;4957944;28;20038;-76
2022/06/15 06:05:24;;;;;;;5.32;2.85;;;16.30;99.90;;;;;;4957354;28;20122;-76
2022/06/15 06:07:50;;;;;;;8.20;3.10;;;16.30;99.90;;;;;;4958314;29;20114;-77
2022/06/15 06:10:16;;;;;;;6.55;3.00;;;16.40;99.90;;;;;;4958758;28;20138;-76
2022/06/15 06:12:42;;;;;;;5.03;3.20;;;16.40;99.90;;;;;;4972191;29;20015;-76
2022/06/15 06:15:09;;;;;;;5.28;3.15;;;16.50;99.90;;;;;;4974101;29;20080;-76
2022/06/15 06:17:34;;;;;;;6.35;3.03;;;16.60;99.90;;;;;;4970856;28;20023;-76
2022/06/15 06:20:00;;;;;;;4.32;2.55;;;16.80;99.90;;;;;;4971787;28;20031;-76
2022/06/15 06:22:26;;;;;;;9.48;2.92;;;16.80;99.90;;;;;;4968611;28;20023;-76
2022/06/15 06:24:52;;;;;;;8.63;3.40;;;16.80;99.90;;;;;;4966044;29;20038;-77
2022/06/15 06:27:18;;;;;;;5.55;2.50;;;16.90;99.90;;;;;;4960965;29;20078;-76
2022/06/15 06:29:43;;;;;;;4.72;3.20;;;17.00;99.90;;;;;;4957069;28;20099;-76
2022/06/15 06:32:14;;;;;;;3.97;2.83;;;17.00;99.90;;;;;;4956997;28;20421;-76
2022/06/15 06:34:40;;;;;;;4.85;3.22;;;17.20;99.90;;;;;;4955518;29;20126;-76
2022/06/15 06:37:07;;;;;;;5.82;2.67;;;17.20;99.90;;;;;;4955919;29;20457;-76
2022/06/15 06:39:34;;;;;;;6.32;3.58;;;17.30;99.90;;;;;;4956715;28;20027;-76
2022/06/15 06:42:05;;;;;;;6.85;3.17;;;17.40;99.90;;;;;;4956990;29;20021;-76
2022/06/15 06:44:31;;;;;;;9.23;3.53;;;17.50;99.90;;;;;;4956193;28;20556;-77
2022/06/15 06:46:56;;;;;;;6.65;3.22;;;17.50;99.90;;;;;;4955574;29;20031;-76
2022/06/15 06:49:23;;;;;;;6.10;3.63;;;17.60;99.90;;;;;;4956847;28;20027;-76
2022/06/15 06:51:50;;;;;;;9.25;3.90;;;17.80;99.90;;;;;;4957058;29;20035;-77
2022/06/15 06:54:19;;;;;;;10.23;3.33;;;17.80;99.90;;;;;;4955081;29;20063;-76
2022/06/15 06:56:45;;;;;;;6.43;3.60;;;17.80;99.90;;;;;;4955417;29;20054;-77
2022/06/15 06:59:13;;;;;;;5.55;3.08;;;17.90;99.90;;;;;;4956341;29;20082;-76
2022/06/15 07:01:40;;;;;;;8.55;3.45;;;17.90;99.90;;;;;;4956369;29;20031;-76
2022/06/15 07:04:07;;;;;;;8.63;2.70;;;18.00;99.90;;;;;;4956000;29;20023;-76
2022/06/15 07:06:33;;;;;;;6.40;3.83;;;18.10;99.90;;;;;;4956690;29;20107;-77
2022/06/15 07:08:59;;;;;;;5.00;3.00;;;18.20;99.90;;;;;;4956701;28;20051;-76
2022/06/15 07:11:25;;;;;;;9.73;3.10;;;18.30;99.90;;;;;;4956290;29;20103;-77
2022/06/15 07:13:51;;;;;;;6.97;3.70;;;18.30;99.90;;;;;;4956363;28;20039;-77
2022/06/15 07:16:18;;;;;;;4.78;3.00;;;18.40;99.90;;;;;;4957156;29;20031;-78
2022/06/15 07:18:46;;;;;;;6.07;2.70;;;18.50;99.90;;;;;;4957186;29;20472;-76
2022/06/15 07:21:15;;;;;;;4.97;2.90;;;18.60;99.90;;;;;;4961455;28;20027;-78
2022/06/15 07:23:43;;;;;;;7.65;3.00;;;18.70;99.90;;;;;;4961325;29;20366;-79
2022/06/15 07:26:13;;;;;;;5.30;2.25;;;18.80;99.90;;;;;;4960354;29;20027;-78
2022/06/15 07:28:40;;;;;;;8.18;3.13;;;18.90;99.90;;;;;;4961330;29;20031;-79
2022/06/15 07:31:07;;;;;;;7.75;2.50;;;19.00;99.90;;;;;;4960020;28;20031;-78
2022/06/15 07:33:37;;;;;;;12.07;3.25;;;19.10;99.90;;;;;;4971499;28;20075;-78
2022/06/15 07:36:03;;;;;;;5.88;2.72;;;19.20;99.90;;;;;;4999825;28;20460;-77
2022/06/15 07:38:29;;;;;;;6.95;2.92;;;19.20;99.90;;;;;;5000448;28;20100;-77
2022/06/15 07:40:57;;;;;;;6.53;2.80;;;19.30;99.90;;;;;;5000817;28;20436;-78
2022/06/15 07:43:23;;;;;;;8.95;2.00;;;19.40;99.90;;;;;;5000041;28;20022;-77
2022/06/15 07:45:50;;;;;;;6.90;2.00;;;19.50;99.90;;;;;;4999895;28;20498;-77
2022/06/15 07:51:00;;;;;;;9.90;3.03;;;19.50;99.90;;;;;;4999422;28;20061;-77
2022/06/15 07:53:26;;;;;;;7.65;2.67;;;19.60;99.90;;;;;;5001185;28;20058;-77
2022/06/15 07:55:53;;;;;;;6.63;2.22;;;19.60;99.90;;;;;;5002845;28;20030;-78
2022/06/15 07:58:20;;;;;;;4.70;2.00;;;19.50;99.90;;;;;;5002853;28;20109;-77
2022/06/15 08:00:47;;;;;;;8.02;2.35;;;19.50;99.90;;;;;;5002413;28;20030;-77
2022/06/15 08:03:14;;;;;;;3.78;2.10;;;19.60;99.90;;;;;;5002097;28;20439;-78
2022/06/15 08:05:44;;;;;;;4.35;1.85;;;19.70;99.90;;;;;;5000792;28;20042;-77
2022/06/15 08:08:14;;;;;;;9.50;2.00;;;19.80;99.90;;;;;;5000085;28;20065;-77
2022/06/15 08:10:40;;;;;;;7.50;2.38;;;19.90;99.90;;;;;;5000436;28;20109;-77
2022/06/15 08:13:07;;;;;;;7.35;2.25;;;20.10;99.90;;;;;;4999073;28;20061;-77
2022/06/15 08:15:34;;;;;;;3.75;2.38;;;20.20;99.90;;;;;;4999932;28;20034;-77
2022/06/15 08:18:08;;;;;;;6.82;2.22;;;20.20;99.90;;;;;;5001704;28;20026;-78
2022/06/15 08:20:41;;;;;;;5.90;2.13;;;20.20;99.90;;;;;;4999953;28;20025;-76
2022/06/15 08:23:12;;;;;;;6.43;2.10;;;20.30;99.90;;;;;;4998704;28;20022;-74
2022/06/15 08:25:41;;;;;;;6.43;2.25;;;20.40;99.90;;;;;;5000742;28;20026;-74
2022/06/15 08:28:09;;;;;;;8.25;2.15;;;20.60;99.90;;;;;;5000769;28;20030;-75
2022/06/15 08:30:36;;;;;;;7.57;2.10;;;20.60;99.90;;;;;;5001100;28;20106;-76
2022/06/15 08:33:04;;;;;;;4.80;2.05;;;20.50;99.90;;;;;;5002324;28;20030;-75
2022/06/15 08:35:29;;;;;;;6.15;2.35;;;20.50;99.90;;;;;;5004678;28;20486;-75
2022/06/15 08:37:56;;;;;;;6.75;2.33;;;20.40;99.90;;;;;;5010180;28;20022;-75
2022/06/15 08:40:22;;;;;;;4.30;2.10;;;20.50;99.90;;;;;;5009655;28;20027;-75
2022/06/15 08:43:01;;;;;;;10.45;2.50;;;20.50;99.90;;;;;;5004223;28;20022;-75
2022/06/15 08:45:36;;;;;;;5.32;2.20;;;20.60;99.90;;;;;;4998969;28;20049;-76
2022/06/15 08:48:18;;;;;;;2.47;1.90;;;20.50;99.90;;;;;;5014975;28;20112;-77
2022/06/15 08:50:56;;;;;;;4.22;1.88;;;20.50;99.90;;;;;;5011885;28;20118;-77
2022/06/15 08:54:10;;;;;;;8.32;2.20;;;20.50;99.90;;;;;;4997612;28;20026;-77
2022/06/15 08:57:14;;;;;;;5.82;2.70;;;20.60;99.90;;;;;;4996763;28;20419;-76
2022/06/15 08:59:54;;;;;;;9.70;2.42;;;20.70;99.90;;;;;;4996237;28;20057;-77
2022/06/15 09:02:23;;;;;;;3.80;1.98;;;20.80;99.90;;;;;;4998060;28;20480;-76
2022/06/15 09:05:02;;;;;;;9.15;2.65;;;20.80;99.90;;;;;;4996167;28;20039;-77
2022/06/15 09:07:27;;;;;;;5.18;2.50;;;21.00;99.90;;;;;;4997279;28;20030;-77
2022/06/15 09:10:22;;;;;;;5.20;2.50;;;21.10;99.90;;;;;;4997270;28;20030;-77
2022/06/15 09:12:58;;;;;;;7.72;2.45;;;21.10;99.90;;;;;;4996442;28;20048;-77
2022/06/15 09:16:01;;;;;;;7.85;3.03;;;21.10;99.90;;;;;;4996959;28;20357;-77
2022/06/15 09:18:48;;;;;;;5.60;2.20;;;21.30;99.90;;;;;;4996905;28;20031;-75
2022/06/15 09:21:16;;;;;;;7.13;3.05;;;21.40;99.90;;;;;;4997324;28;20153;-75
2022/06/15 09:23:56;;;;;;;6.88;2.33;;;21.60;99.90;;;;;;4995189;28;20037;-75
2022/06/15 09:26:34;;;;;;;7.40;2.85;;;21.70;99.90;;;;;;4996179;28;20030;-75
2022/06/15 09:29:06;;;;;;;5.20;2.50;;;21.70;99.90;;;;;;4995494;28;20053;-75
2022/06/15 09:31:49;;;;;;;4.85;2.80;;;21.70;99.90;;;;;;4996323;28;20037;-75
2022/06/15 09:34:22;;;;;;;6.72;2.40;;;21.80;99.90;;;;;;5030600;22;20035;-71
2022/06/15 09:36:54;;;;;;;6.45;2.55;;;21.90;99.90;;;;;;4998859;28;20026;-70
2022/06/15 09:39:20;;;;;;;7.78;2.35;;;21.90;99.90;;;;;;4997283;28;20407;-72
2022/06/15 09:41:52;;;;;;;11.20;2.75;;;21.90;99.90;;;;;;4996587;28;20030;-72
2022/06/15 09:44:59;;;;;;;8.50;2.85;;;21.90;99.90;;;;;;4995622;28;20026;-72
2022/06/15 09:48:00;;;;;;;9.70;2.80;;;21.70;99.90;;;;;;4996059;28;20029;-73
2022/06/15 09:50:45;;;;;;;4.30;2.15;;;21.50;99.90;;;;;;4990996;28;20116;-72
2022/06/15 09:53:22;;;;;;;8.95;2.78;;;21.30;99.90;;;;;;4977890;28;20065;-71
2022/06/15 09:55:54;;;;;;;7.60;2.53;;;21.10;99.90;;;;;;4980734;28;20022;-72
2022/06/15 09:58:25;;;;;;;7.10;2.95;;;21.00;99.90;;;;;;4993584;28;20475;-73
2022/06/15 10:00:50;;;;;;;9.93;2.80;;;21.00;99.90;;;;;;4990046;28;20028;-72
2022/06/15 10:03:20;;;;;;;6.32;2.95;;;21.10;99.90;;;;;;4981688;28;20031;-72
2022/06/15 10:05:49;;;;;;;6.82;2.40;;;21.20;99.90;;;;;;4987830;28;20113;-72
2022/06/15 10:08:16;;;;;;;6.50;2.88;;;21.30;99.90;;;;;;4994395;28;20387;-73
2022/06/15 10:10:55;;;;;;;5.35;2.72;;;21.50;99.90;;;;;;4998142;28;20383;-72
2022/06/15 10:13:21;;;;;;;5.18;2.70;;;21.60;99.90;;;;;;4997221;28;20033;-72
2022/06/15 10:15:55;;;;;;;9.45;2.20;;;21.70;99.90;;;;;;4991530;28;20027;-72
2022/06/15 10:18:44;;;;;;;6.00;2.80;;;21.70;99.90;;;;;;4989894;28;20058;-72
2022/06/15 10:21:12;;;;;;;4.18;2.30;;;21.80;99.90;;;;;;4996376;28;20031;-73
2022/06/15 10:23:50;;;;;;;4.25;2.08;;;21.80;99.90;;;;;;4998287;28;20026;-74
2022/06/15 10:26:29;;;;;;;7.20;2.50;;;21.90;99.90;;;;;;4989215;28;20075;-72
2022/06/15 10:28:57;;;;;;;9.68;2.97;;;22.10;99.90;;;;;;4977299;28;20207;-73
2022/06/15 10:31:33;;;;;;;6.00;2.50;;;22.10;99.90;;;;;;4976915;28;20023;-74
2022/06/15 10:34:25;;;;;;;6.70;2.58;;;22.10;99.90;;;;;;4976936;28;20023;-75
2022/06/15 10:36:57;;;;;;;6.20;2.40;;;22.20;99.90;;;;;;4980819;28;20027;-73
2022/06/15 10:39:27;;;;;;;8.40;2.22;;;22.20;99.90;;;;;;4981727;28;20037;-73
2022/06/15 10:42:07;;;;;;;9.05;3.42;;;22.20;99.90;;;;;;4976146;28;20022;-75
2022/06/15 10:44:48;;;;;;;4.50;2.33;;;22.20;99.90;;;;;;4986133;28;20027;-74
2022/06/15 10:47:17;;;;;;;;;;;22.30;99.90;;;;;;4983683;28;20022;-74
2022/06/15 10:49:46;;;;;;;5.93;2.47;;;22.30;99.90;;;;;;4982974;28;19906;-75
2022/06/15 10:52:25;;;;;;;5.60;2.55;;;22.30;99.90;;;;;;4976788;28;20031;-73
2022/06/15 11:02:06;;;;;;;4.03;2.20;;;22.50;99.10;;;;;;4977804;28;20026;-73
2022/06/15 11:04:49;;;;;;;6.57;2.45;;;22.50;98.90;;;;;;4976226;28;20055;-74
2022/06/15 11:07:20;;;;;;;5.80;2.85;;;22.60;99.10;;;;;;4976574;28;20495;-74
2022/06/15 11:09:55;;;;;;;5.25;2.38;;;22.70;99.00;;;;;;4977615;28;20038;-73
2022/06/15 11:12:50;;;;;;;6.03;3.20;;;22.60;98.90;;;;;;4986575;28;20473;-74
2022/06/15 11:15:16;;;;;;;6.90;2.33;;;22.70;98.50;;;;;;4991255;28;20046;-73
2022/06/15 11:18:03;;;;;;;3.78;2.30;;;22.70;98.60;;;;;;4993067;28;20033;-74
2022/06/15 11:20:43;;;;;;;4.78;2.15;;;22.80;98.40;;;;;;4983848;28;20058;-73
2022/06/15 11:23:14;;;;;;;3.75;2.05;;;22.70;97.90;;;;;;4976495;28;20031;-73
2022/06/15 11:25:48;;;;;;;7.18;2.80;;;22.60;98.20;;;;;;4974889;28;20400;-73
2022/06/15 11:28:24;;;;;;;7.70;1.90;;;22.60;98.50;;;;;;4976721;28;20030;-73
2022/06/15 11:30:58;;;;;;;5.88;2.20;;;22.50;98.50;;;;;;4977100;28;20054;-73
2022/06/15 11:33:57;;;;;;;5.18;1.90;;;22.50;98.50;;;;;;4976468;28;20074;-73
2022/06/15 11:36:29;;;;;;;5.80;2.55;;;22.50;98.70;;;;;;4976805;28;20121;-73
2022/06/15 11:39:11;;;;;;;4.13;2.45;;;22.70;98.40;;;;;;4991915;28;20071;-73
2022/06/15 11:41:47;;;;;;;4.38;2.72;;;22.90;97.50;;;;;;4976892;28;20027;-73
2022/06/15 11:44:19;;;;;;;5.70;2.30;;;22.80;97.20;;;;;;4992963;28;20027;-74
2022/06/15 11:46:50;;;;;;;6.22;2.38;;;22.70;96.70;;;;;;4977440;28;20046;-73
2022/06/15 11:49:31;;;;;;;4.32;1.92;;;22.60;96.80;;;;;;4977479;28;20122;-74
2022/06/15 11:52:15;;;;;;;5.28;2.70;;;22.50;97.30;;;;;;4977827;28;20027;-73
2022/06/15 11:55:10;;;;;;;6.75;2.55;;;22.60;97.60;;;;;;4977324;28;20101;-73
2022/06/15 11:58:06;;;;;;;3.38;2.05;;;22.70;97.00;;;;;;4977000;28;20026;-73
2022/06/15 12:00:43;;;;;;;6.47;2.30;;;22.90;97.10;;;;;;4976599;28;20473;-73
2022/06/15 12:03:15;;;;;;;5.38;2.60;;;23.10;96.50;;;;;;4977716;28;20113;-73
2022/06/15 12:06:03;;;;;;;6.57;2.17;;;23.20;96.10;;;;;;4977260;28;20027;-74
2022/06/15 12:09:04;;;;;;;7.22;2.65;;;23.10;96.10;;;;;;4978162;28;20027;-75
2022/06/15 12:14:29;;;;;;;5.57;2.30;;;23.00;95.60;;;;;;4981321;28;20376;-73
2022/06/15 12:17:04;;;;;;;6.40;2.70;;;23.00;95.80;;;;;;4978248;28;20027;-74
2022/06/15 12:19:36;;;;;;;7.30;2.70;;;23.00;96.00;;;;;;4979979;28;20034;-73
2022/06/15 12:22:16;;;;;;;6.75;2.70;;;23.10;95.40;;;;;;4981181;28;20029;-73
2022/06/15 12:24:57;;;;;;;5.13;2.20;;;23.20;95.20;;;;;;4981187;28;20027;-73
2022/06/15 12:27:39;;;;;;;3.40;2.45;;;23.30;95.00;;;;;;4979597;28;20432;-73
2022/06/15 12:30:20;;;;;;;9.13;2.50;;;23.40;94.70;;;;;;4980900;28;20101;-74
2022/06/15 12:33:09;;;;;;;4.47;2.67;;;23.30;94.70;;;;;;4980372;28;20030;-71
2022/06/15 12:35:51;;;;;;;6.22;2.85;;;23.30;95.00;;;;;;4980919;28;20031;-71
2022/06/15 12:38:30;;;;;;;4.65;2.13;;;23.30;94.40;;;;;;4980499;28;20125;-72
2022/06/15 12:41:05;;;;;;;3.83;2.08;;;23.30;94.60;;;;;;4981085;28;20100;-73
2022/06/15 12:43:38;;;;;;;5.53;2.25;;;23.40;94.10;;;;;;4980737;28;20097;-72
2022/06/15 12:46:12;;;;;;;6.03;2.45;;;23.40;94.70;;;;;;4984602;28;20018;-73
2022/06/15 12:48:48;;;;;;;8.15;2.30;;;23.60;94.30;;;;;;4996020;28;20416;-73
2022/06/15 12:51:44;;;;;;;4.90;2.47;;;23.60;97.10;;;;;;5000790;28;20030;-72
2022/06/15 12:54:46;;;;;;;3.58;2.10;;;23.60;99.90;;;;;;5003346;28;20037;-73
2022/06/15 12:57:56;;;;;;;7.20;2.63;;;23.60;99.90;;;;;;5003292;28;20026;-72
2022/06/15 13:00:34;;;;;;;6.32;2.30;;;23.50;99.90;;;;;;5003391;28;20149;-72
2022/06/15 13:03:21;;;;;;;3.67;2.50;;;23.50;99.90;;;;;;5003535;28;20088;-73
2022/06/15 13:05:47;;;;;;;6.55;2.08;;;23.60;99.90;;;;;;5005994;28;20110;-73
2022/06/15 13:08:15;;;;;;;6.38;2.53;;;23.60;99.90;;;;;;5004672;28;20062;-72
2022/06/15 13:11:07;;;;;;;5.78;2.75;;;23.70;99.90;;;;;;5005443;28;20026;-71
2022/06/15 13:13:35;;;;;;;4.78;1.98;;;23.70;99.90;;;;;;5002779;28;20035;-72
2022/06/15 13:16:08;;;;;;;7.32;2.72;;;23.60;99.90;;;;;;4993862;28;20169;-72
2022/06/15 13:18:48;;;;;;;5.85;2.55;;;23.50;99.90;;;;;;4992491;28;20486;-73
2022/06/15 13:21:19;;;;;;;5.57;2.40;;;23.60;99.90;;;;;;4998408;28;20027;-72
2022/06/15 13:23:57;;;;;;;7.38;2.33;;;23.70;99.90;;;;;;4998381;28;20033;-73
2022/06/15 13:26:25;;;;;;;6.70;2.35;;;23.70;99.90;;;;;;4997314;28;20077;-72
2022/06/15 13:29:09;;;;;;;4.78;1.90;;;23.70;99.90;;;;;;4999364;28;20483;-72